»·PEaware :: N471JR KSBP-KSBP

N471JR :: KSBP-KSBP

FLIGHT INFORMATION

Flight Status: Arrived
Operator: Privately registered:
United States
More flights under this callsign
Pilot: Jose E O. (29658)
Aircraft: BEECH AIRCRAFT BARON
(BE58)
More flights by this aircraft type
Origin: KSBP San Luis Co Regl
United States
Destination: KSBP San Luis Co Regl
United States
More flights between these airports :: More routes between these airports
Route: REMAIN IN AIRPORT - PATTERN
File this flight plan on PilotEdge
Remarks:
Altitude:
(Current/Filed)
1,200ft
Speed:
(Current/Filed)
145kts
Departed: 01-Aug-20 06:58 PM
Arrived: 01-Aug-20 07:11 PM
Distance/Time
Traveled:
0nm/0:13
Distance/Time
To Go:
Arrived

Flight Plot

Page will automatically refresh every two minutes.


Map Options




Map Legend


Flown Route
Filed Route
Departure Airport
Arrival Airport
Navaid (VOR, NDB)
Fix

Horizontal Profiles

Position Reports

Time Latitude Longitude Heading Altitude Ground
Speed
01-Aug-20 18:28 35.238242 -120.639985 308 215ft 0kts
01-Aug-20 18:29 35.238242 -120.639985 308 215ft 0kts
01-Aug-20 18:30 35.238242 -120.639985 308 215ft 0kts
01-Aug-20 18:31 35.238242 -120.639985 308 215ft 0kts
01-Aug-20 18:32 35.238242 -120.639985 308 215ft 0kts
01-Aug-20 18:33 35.238242 -120.639985 308 215ft 0kts
01-Aug-20 18:34 35.238242 -120.639985 308 215ft 0kts
01-Aug-20 18:35 35.238242 -120.639985 308 215ft 0kts
01-Aug-20 18:36 35.238242 -120.639985 308 215ft 0kts
01-Aug-20 18:37 35.238242 -120.639985 308 215ft 0kts
01-Aug-20 18:38 35.238242 -120.639985 308 215ft 0kts
01-Aug-20 18:39 35.238242 -120.639985 308 215ft 0kts
01-Aug-20 18:40 35.238242 -120.639985 308 215ft 0kts
01-Aug-20 18:41 35.238242 -120.639985 308 215ft 0kts
01-Aug-20 18:42 35.238242 -120.639985 308 215ft 0kts
01-Aug-20 18:43 35.238242 -120.639985 308 215ft 0kts
01-Aug-20 18:44 35.238242 -120.639985 308 215ft 0kts
01-Aug-20 18:45 35.238242 -120.639985 308 215ft 0kts
01-Aug-20 18:46 35.238242 -120.639985 308 215ft 0kts
01-Aug-20 18:47 35.238242 -120.639985 308 215ft 0kts
01-Aug-20 18:48 35.238254 -120.640007 299 215ft 2kts
01-Aug-20 18:49 35.237886 -120.640066 112 215ft 0kts
01-Aug-20 18:50 35.236393 -120.637387 125 215ft 0kts
01-Aug-20 18:51 35.235002 -120.634983 123 215ft 15kts
01-Aug-20 18:52 35.234129 -120.633423 124 215ft 0kts
01-Aug-20 18:53 35.234129 -120.633423 124 215ft 0kts
01-Aug-20 18:54 35.233383 -120.632329 170 215ft 0kts
01-Aug-20 18:55 35.233383 -120.632329 171 215ft 0kts
01-Aug-20 18:56 35.233369 -120.632327 172 215ft 3kts
01-Aug-20 18:57 35.235593 -120.638037 303 226ft 89kts
01-Aug-20 18:58 35.247408 -120.670940 246 1255ft 125kts
01-Aug-20 18:59 35.221267 -120.650732 113 745ft 134kts
01-Aug-20 19:00 35.206274 -120.616824 73 664ft 106kts
01-Aug-20 19:01 35.225420 -120.623804 321 729ft 104kts
01-Aug-20 19:02 35.240948 -120.647384 302 407ft 105kts
01-Aug-20 19:03 35.232220 -120.664870 150 990ft 143kts
01-Aug-20 19:04 35.215056 -120.616772 99 1318ft 158kts
01-Aug-20 19:05 35.225310 -120.616609 276 641ft 79kts
01-Aug-20 19:06 35.236348 -120.639329 303 237ft 91kts
01-Aug-20 19:07 35.239568 -120.672024 200 1154ft 143kts
01-Aug-20 19:08 35.215947 -120.633374 115 1202ft 151kts
01-Aug-20 19:09 35.224041 -120.618359 300 600ft 89kts
01-Aug-20 19:10 35.235684 -120.638247 299 215ft 15kts
01-Aug-20 19:11 35.237522 -120.639927 8 215ft 0kts
01-Aug-20 19:12 35.238248 -120.640238 168 215ft 0kts
01-Aug-20 19:13 35.238246 -120.640237 167 215ft 0kts
01-Aug-20 19:14 35.238246 -120.640237 167 215ft 0kts
01-Aug-20 19:15 35.238246 -120.640237 167 215ft 0kts
01-Aug-20 19:16 35.238246 -120.640237 167 215ft 0kts
01-Aug-20 19:17 35.238246 -120.640237 167 215ft 0kts
01-Aug-20 19:18 35.238246 -120.640237 167 215ft 0kts
01-Aug-20 19:19 35.238246 -120.640237 167 215ft 0kts
01-Aug-20 19:20 35.238246 -120.640237 167 215ft 0kts
01-Aug-20 19:21 35.238246 -120.640237 167 215ft 0kts
01-Aug-20 19:22 35.238246 -120.640237 167 215ft 0kts
01-Aug-20 19:23 35.238246 -120.640237 167 215ft 0kts
01-Aug-20 19:24 35.238246 -120.640237 167 215ft 0kts

Navigation Log

Ident Type
Flight plan parsing failed, navigation log unavailable